createdAt,value
2023-04-15T00:00:10.365Z,11.23
2023-04-15T00:03:17.070Z,10.50
2023-04-15T00:06:20.750Z,12.35
2023-04-15T00:09:24.296Z,10.70
2023-04-15T00:12:27.979Z,10.43
2023-04-15T00:15:30.643Z,13.30
2023-04-15T00:18:33.244Z,14.30
2023-04-15T00:21:36.564Z,15.55
2023-04-15T00:24:39.796Z,14.85
2023-04-15T00:27:42.461Z,14.90
2023-04-15T00:30:45.932Z,14.13
2023-04-15T00:33:48.857Z,15.25
2023-04-15T00:36:52.614Z,14.60
2023-04-15T00:39:56.567Z,15.88
2023-04-15T00:43:00.128Z,17.30
2023-04-15T00:46:05.211Z,16.93
2023-04-15T00:49:08.938Z,17.63
2023-04-15T00:52:11.963Z,17.42
2023-04-15T00:55:16.420Z,14.27
2023-04-15T00:58:19.462Z,16.00
2023-04-15T01:01:22.751Z,16.97
2023-04-15T01:04:26.704Z,15.30
2023-04-15T01:07:30.889Z,17.17
2023-04-15T01:10:33.710Z,15.77
2023-04-15T01:13:36.916Z,16.10
2023-04-15T01:16:39.973Z,16.47
2023-04-15T01:19:43.388Z,17.30
2023-04-15T01:22:47.078Z,16.73
2023-04-15T01:25:51.482Z,16.20
2023-04-15T01:28:54.925Z,15.57
2023-04-15T01:31:57.786Z,15.70
2023-04-15T01:35:02.291Z,17.42
2023-04-15T01:38:09.845Z,15.40
2023-04-15T01:41:16.530Z,16.27
2023-04-15T01:44:20.323Z,15.60
2023-04-15T01:47:23.314Z,15.80
2023-04-15T01:50:27.145Z,16.33
2023-04-15T01:53:31.299Z,16.90
2023-04-15T01:56:33.858Z,15.57
2023-04-15T01:59:37.228Z,16.97
2023-04-15T02:02:40.385Z,16.23
2023-04-15T02:05:43.732Z,16.48
2023-04-15T02:08:47.527Z,18.08
2023-04-15T02:11:51.776Z,19.17
2023-04-15T02:14:54.452Z,16.07
2023-04-15T02:18:00.954Z,16.60
2023-04-15T02:21:06.046Z,16.25
2023-04-15T02:24:09.102Z,15.77
2023-04-15T02:27:15.598Z,14.95
2023-04-15T02:30:18.792Z,16.33
2023-04-15T02:33:21.871Z,15.90
2023-04-15T02:36:24.678Z,14.90
2023-04-15T02:39:27.496Z,15.75
2023-04-15T02:42:31.999Z,14.57
2023-04-15T02:45:37.791Z,14.20
2023-04-15T02:48:41.903Z,14.43
2023-04-15T02:51:49.499Z,14.15
2023-04-15T02:54:52.118Z,14.85
2023-04-15T02:57:54.646Z,14.20
2023-04-15T03:00:57.694Z,14.93
2023-04-15T03:04:00.581Z,13.97
2023-04-15T03:07:03.357Z,13.98
2023-04-15T03:10:07.380Z,13.57
2023-04-15T03:13:10.322Z,13.65
2023-04-15T03:16:14.673Z,13.90
2023-04-15T03:19:18.412Z,14.33
2023-04-15T03:22:21.376Z,15.43
2023-04-15T03:25:24.325Z,14.52
2023-04-15T03:28:28.670Z,13.77
2023-04-15T03:31:32.573Z,15.20
2023-04-15T03:34:36.196Z,13.43
2023-04-15T03:37:38.973Z,14.90
2023-04-15T03:40:42.258Z,14.32
2023-04-15T03:43:45.507Z,13.23
2023-04-15T03:46:48.533Z,14.20
2023-04-15T03:49:52.209Z,14.50
2023-04-15T03:52:54.904Z,13.60
2023-04-15T03:55:57.461Z,13.77
2023-04-15T03:59:01.452Z,15.35
2023-04-15T04:02:04.720Z,14.63
2023-04-15T04:05:08.235Z,13.37
2023-04-15T04:08:13.887Z,14.23
2023-04-15T04:11:16.504Z,14.32
2023-04-15T04:14:19.589Z,15.00
2023-04-15T04:17:22.280Z,15.27
2023-04-15T04:20:25.136Z,13.33
2023-04-15T04:23:28.658Z,13.88
2023-04-15T04:26:31.305Z,14.02
2023-04-15T04:29:38.549Z,13.88
2023-04-15T04:32:41.141Z,14.27
2023-04-15T04:35:43.761Z,16.27
2023-04-15T04:38:46.664Z,14.23
2023-04-15T04:41:52.267Z,13.80
2023-04-15T04:44:54.953Z,15.55
2023-04-15T04:47:58.238Z,18.63
2023-04-15T04:51:01.073Z,23.63
2023-04-15T04:54:04.369Z,24.35
2023-04-15T04:57:08.122Z,20.60
2023-04-15T05:00:11.224Z,19.10
2023-04-15T05:03:14.526Z,15.90
2023-04-15T05:06:17.168Z,18.70
2023-04-15T05:09:20.178Z,15.75
2023-04-15T05:12:22.764Z,14.95
2023-04-15T05:15:25.477Z,15.90
2023-04-15T05:18:28.733Z,13.63
2023-04-15T05:21:31.853Z,15.27
2023-04-15T05:24:34.656Z,13.35
2023-04-15T05:27:37.303Z,16.30
2023-04-15T05:30:40.805Z,15.25
2023-04-15T05:33:44.383Z,14.23
2023-04-15T05:36:47.752Z,14.03
2023-04-15T05:39:50.405Z,12.60
2023-04-15T05:42:53.065Z,11.43
2023-04-15T05:45:57.013Z,10.73
2023-04-15T05:49:00.068Z,12.73
2023-04-15T05:52:04.145Z,9.07
2023-04-15T05:55:07.447Z,10.07
2023-04-15T05:58:09.951Z,9.90
2023-04-15T06:01:12.530Z,9.68
2023-04-15T06:04:15.552Z,10.13
2023-04-15T06:07:18.796Z,9.60
2023-04-15T06:10:21.562Z,12.02
2023-04-15T06:13:24.147Z,10.85
2023-04-15T06:16:27.403Z,9.68
2023-04-15T06:19:30.390Z,9.00
2023-04-15T06:22:33.222Z,8.00
2023-04-15T06:25:35.869Z,8.60
2023-04-15T06:28:38.534Z,7.75
2023-04-15T06:31:50.281Z,9.10
2023-04-15T06:34:52.886Z,9.50
2023-04-15T06:37:55.408Z,7.47
2023-04-15T06:40:58.982Z,9.07
2023-04-15T06:44:02.664Z,8.85
2023-04-15T06:47:05.410Z,7.82
2023-04-15T06:50:09.383Z,9.03
2023-04-15T06:53:12.402Z,10.07
2023-04-15T06:56:15.838Z,9.43
2023-04-15T06:59:19.029Z,6.55
2023-04-15T07:02:22.114Z,6.47
2023-04-15T07:05:25.475Z,8.10
2023-04-15T07:08:28.073Z,6.50
2023-04-15T07:11:31.423Z,6.57
2023-04-15T07:14:33.934Z,6.93
2023-04-15T07:17:37.186Z,7.10
2023-04-15T07:20:40.259Z,6.17
2023-04-15T07:23:44.089Z,9.57
2023-04-15T07:26:47.304Z,7.43
2023-04-15T07:29:52.080Z,7.75
2023-04-15T07:32:55.344Z,7.15
2023-04-15T07:35:58.221Z,6.80
2023-04-15T07:39:03.684Z,7.80
2023-04-15T07:42:07.453Z,5.43
2023-04-15T07:45:11.475Z,7.22
2023-04-15T07:48:14.074Z,5.05
2023-04-15T07:51:17.829Z,5.53
2023-04-15T07:54:21.574Z,5.23
2023-04-15T07:57:24.339Z,4.45
2023-04-15T08:00:27.077Z,4.22
2023-04-15T08:03:30.016Z,3.35
2023-04-15T08:06:33.274Z,3.50
2023-04-15T08:09:36.030Z,5.70
2023-04-15T08:12:38.672Z,6.25
2023-04-15T08:15:41.376Z,5.65
2023-04-15T08:18:44.392Z,3.58
2023-04-15T08:21:47.931Z,4.57
2023-04-15T08:24:50.579Z,3.13
2023-04-15T08:27:57.173Z,4.30
2023-04-15T08:31:00.006Z,2.50
2023-04-15T08:34:03.702Z,3.83
2023-04-15T08:37:07.101Z,4.60
2023-04-15T08:40:10.879Z,3.47
2023-04-15T08:43:20.974Z,2.33
2023-04-15T08:46:24.267Z,1.67
2023-04-15T08:49:29.118Z,2.72
2023-04-15T08:52:32.316Z,4.17
2023-04-15T08:55:36.855Z,2.07
2023-04-15T08:58:40.704Z,2.70
2023-04-15T09:01:44.174Z,2.92
2023-04-15T09:04:47.552Z,2.70
2023-04-15T09:07:53.461Z,2.50
2023-04-15T09:10:56.305Z,2.00
2023-04-15T09:13:58.905Z,2.28
2023-04-15T09:17:03.998Z,3.65
2023-04-15T09:20:11.547Z,2.85
2023-04-15T09:23:15.906Z,2.30
2023-04-15T09:26:19.591Z,1.60
2023-04-15T09:29:25.912Z,3.60
2023-04-15T09:32:28.633Z,1.80
2023-04-15T09:35:31.642Z,1.55
2023-04-15T09:38:34.297Z,1.63
2023-04-15T09:41:36.919Z,1.70
2023-04-15T09:44:39.647Z,3.35
2023-04-15T09:47:42.555Z,2.25
2023-04-15T09:50:45.306Z,4.45
2023-04-15T09:53:54.746Z,2.33
2023-04-15T09:57:08.687Z,1.63
2023-04-15T10:00:11.731Z,3.05
2023-04-15T10:03:21.631Z,5.07
2023-04-15T10:06:28.071Z,4.72
2023-04-15T10:09:31.859Z,4.17
2023-04-15T10:12:37.515Z,4.90
2023-04-15T10:15:44.774Z,5.53
2023-04-15T10:18:56.114Z,3.40
2023-04-15T10:21:59.688Z,3.05
2023-04-15T10:25:04.284Z,2.33
2023-04-15T10:28:09.046Z,2.07
2023-04-15T10:31:13.823Z,2.65
2023-04-15T10:34:17.603Z,2.38
2023-04-15T10:37:35.738Z,3.35
2023-04-15T10:40:39.568Z,2.23
2023-04-15T10:44:08.420Z,1.77
2023-04-15T10:47:21.737Z,1.20
2023-04-15T10:50:28.867Z,4.63
2023-04-15T10:53:32.117Z,2.40
2023-04-15T10:56:34.658Z,1.67
2023-04-15T10:59:39.351Z,3.20
2023-04-15T11:02:44.917Z,1.80
2023-04-15T11:05:54.297Z,1.38
2023-04-15T11:08:59.592Z,1.55
2023-04-15T11:12:08.386Z,1.53
2023-04-15T11:15:32.586Z,1.60
2023-04-15T11:18:35.321Z,3.20
2023-04-15T11:21:38.276Z,1.67
2023-04-15T11:24:50.590Z,1.27
2023-04-15T11:27:57.605Z,1.20
2023-04-15T11:31:07.424Z,0.60
2023-04-15T11:34:10.296Z,2.75
2023-04-15T11:37:13.084Z,3.47
2023-04-15T11:40:17.645Z,1.67
2023-04-15T11:43:22.821Z,1.03
2023-04-15T11:46:32.012Z,0.80
2023-04-15T11:49:38.420Z,1.00
2023-04-15T11:52:41.542Z,0.85
2023-04-15T11:55:46.382Z,2.45
2023-04-15T11:58:54.147Z,2.50
2023-04-15T12:01:57.354Z,1.20
2023-04-15T12:05:08.560Z,1.73
2023-04-15T12:08:12.288Z,0.88
2023-04-15T12:11:16.533Z,0.80
2023-04-15T12:14:29.908Z,0.80
2023-04-15T12:17:50.870Z,0.60
2023-04-15T12:20:54.738Z,0.73
2023-04-15T12:23:58.080Z,1.63
2023-04-15T12:27:08.536Z,1.83
2023-04-15T12:30:11.796Z,1.33
2023-04-15T12:33:15.396Z,1.13
2023-04-15T12:36:18.697Z,1.67
2023-04-15T12:39:25.391Z,1.17
2023-04-15T12:42:28.234Z,1.70
2023-04-15T12:45:31.749Z,2.27
2023-04-15T12:48:34.761Z,2.07
2023-04-15T12:51:37.715Z,2.83
2023-04-15T12:54:40.586Z,2.95
2023-04-15T12:57:43.746Z,2.30
2023-04-15T13:00:47.080Z,4.07
2023-04-15T13:03:51.255Z,0.80
2023-04-15T13:06:54.570Z,1.10
2023-04-15T13:09:57.775Z,0.93
2023-04-15T13:13:00.414Z,2.72
2023-04-15T13:16:03.231Z,2.10
2023-04-15T13:19:06.535Z,2.13
2023-04-15T13:22:09.348Z,1.60
2023-04-15T13:25:12.482Z,3.20
2023-04-15T13:28:15.189Z,2.20
2023-04-15T13:31:17.854Z,1.13
2023-04-15T13:34:20.803Z,1.80
2023-04-15T13:37:30.281Z,1.27
2023-04-15T13:40:32.961Z,1.17
2023-04-15T13:43:35.775Z,1.15
2023-04-15T13:46:39.614Z,1.30
2023-04-15T13:49:42.303Z,2.17
2023-04-15T13:52:45.786Z,2.20
2023-04-15T13:55:48.425Z,1.52
2023-04-15T13:58:53.020Z,1.15
2023-04-15T14:01:56.179Z,3.53
2023-04-15T14:04:58.963Z,1.70
2023-04-15T14:08:01.641Z,2.13
2023-04-15T14:11:04.267Z,3.00
2023-04-15T14:14:06.973Z,2.75
2023-04-15T14:17:09.606Z,3.30
2023-04-15T14:20:13.201Z,3.03
2023-04-15T14:23:16.741Z,4.75
2023-04-15T14:26:19.556Z,5.57
2023-04-15T14:29:22.337Z,4.75
2023-04-15T14:32:26.415Z,2.60
2023-04-15T14:35:30.006Z,1.83
2023-04-15T14:38:38.486Z,5.68
2023-04-15T14:41:41.436Z,3.97
2023-04-15T14:44:44.857Z,3.60
2023-04-15T14:47:47.776Z,3.57
2023-04-15T14:50:50.700Z,4.97
2023-04-15T14:53:53.731Z,4.40
2023-04-15T14:56:56.437Z,6.28
2023-04-15T14:59:59.275Z,6.80
2023-04-15T15:03:04.070Z,6.07
2023-04-15T15:06:06.956Z,5.77
2023-04-15T15:09:09.772Z,5.68
2023-04-15T15:12:12.386Z,4.32
2023-04-15T15:15:28.256Z,3.90
2023-04-15T15:18:31.985Z,4.63
2023-04-15T15:21:35.095Z,3.20
2023-04-15T15:24:37.692Z,3.20
2023-04-15T15:27:40.485Z,2.17
2023-04-15T15:30:43.108Z,2.10
2023-04-15T15:33:45.874Z,2.40
2023-04-15T15:36:48.692Z,1.67
2023-04-15T15:39:53.489Z,1.20
2023-04-15T15:42:56.166Z,2.17
2023-04-15T15:45:58.897Z,2.13
2023-04-15T15:49:04.106Z,2.67
2023-04-15T15:52:07.699Z,1.33
2023-04-15T15:55:10.435Z,2.08
2023-04-15T15:58:13.148Z,1.10
2023-04-15T16:01:16.185Z,1.73
2023-04-15T16:04:19.464Z,2.80
2023-04-15T16:07:22.172Z,2.43
2023-04-15T16:10:24.936Z,1.75
2023-04-15T16:13:27.953Z,2.30
2023-04-15T16:16:31.088Z,3.83
2023-04-15T16:19:33.785Z,2.90
2023-04-15T16:22:36.550Z,3.03
2023-04-15T16:25:39.166Z,4.05
2023-04-15T16:28:42.017Z,4.15
2023-04-15T16:31:44.768Z,3.63
2023-04-15T16:34:47.559Z,3.53
2023-04-15T16:37:50.493Z,3.07
2023-04-15T16:40:54.431Z,3.92
2023-04-15T16:43:58.625Z,3.50
2023-04-15T16:47:03.128Z,3.65
2023-04-15T16:50:06.453Z,4.73
2023-04-15T16:53:09.136Z,4.67
2023-04-15T16:56:11.819Z,3.58
2023-04-15T16:59:14.456Z,4.75
2023-04-15T17:02:18.319Z,2.80
2023-04-15T17:05:21.184Z,3.93
2023-04-15T17:08:23.948Z,4.47
2023-04-15T17:11:28.178Z,3.38
2023-04-15T17:14:32.252Z,6.20
2023-04-15T17:17:34.862Z,3.83
2023-04-15T17:20:39.521Z,3.90
2023-04-15T17:23:43.267Z,2.77
2023-04-15T17:26:47.220Z,3.40
2023-04-15T17:29:49.835Z,3.40
2023-04-15T17:32:53.193Z,4.65
2023-04-15T17:35:57.907Z,3.53
2023-04-15T17:39:00.613Z,3.73
2023-04-15T17:42:03.313Z,3.72
2023-04-15T17:45:06.541Z,13.50
2023-04-15T17:48:09.299Z,4.30
2023-04-15T17:51:12.946Z,4.57
2023-04-15T17:54:16.067Z,4.33
2023-04-15T17:57:18.601Z,5.00
2023-04-15T18:00:22.108Z,5.40
2023-04-15T18:03:26.309Z,6.53
2023-04-15T18:06:29.239Z,5.87
2023-04-15T18:09:32.646Z,5.87
2023-04-15T18:12:35.426Z,4.93
2023-04-15T18:15:38.219Z,7.13
2023-04-15T18:18:40.922Z,6.28
2023-04-15T18:21:43.883Z,6.60
2023-04-15T18:24:46.519Z,6.37
2023-04-15T18:27:49.578Z,6.60
2023-04-15T18:30:52.124Z,7.03
2023-04-15T18:33:54.871Z,8.00
2023-04-15T18:36:58.761Z,15.97
2023-04-15T18:40:02.740Z,10.27
2023-04-15T18:43:06.370Z,11.10
2023-04-15T18:46:11.903Z,7.22
2023-04-15T18:49:15.926Z,7.07
2023-04-15T18:52:18.689Z,7.67
2023-04-15T18:55:21.352Z,6.97
2023-04-15T18:58:24.114Z,6.38
2023-04-15T19:01:27.708Z,7.07
2023-04-15T19:04:31.357Z,5.47
2023-04-15T19:07:34.976Z,6.60
2023-04-15T19:10:38.132Z,6.10
2023-04-15T19:13:40.808Z,7.32
2023-04-15T19:16:45.176Z,6.43
2023-04-15T19:19:47.923Z,5.53
2023-04-15T19:22:50.833Z,6.83
2023-04-15T19:25:53.616Z,6.00
2023-04-15T19:28:58.969Z,7.32
2023-04-15T19:32:02.165Z,7.82
2023-04-15T19:35:05.509Z,8.45
2023-04-15T19:38:08.718Z,11.60
2023-04-15T19:41:12.253Z,7.60
2023-04-15T19:44:15.139Z,7.70
2023-04-15T19:47:19.390Z,7.72
2023-04-15T19:50:26.285Z,7.38
2023-04-15T19:53:29.400Z,7.63
2023-04-15T19:56:34.405Z,7.67
2023-04-15T19:59:38.249Z,7.82
2023-04-15T20:02:41.982Z,7.80
2023-04-15T20:05:44.881Z,9.63
2023-04-15T20:08:47.448Z,10.73
2023-04-15T20:12:46.851Z,10.10
2023-04-15T20:15:13.474Z,8.63
2023-04-15T20:18:16.917Z,8.65
2023-04-15T20:21:19.498Z,11.07
2023-04-15T20:24:24.267Z,13.63
2023-04-15T20:27:27.786Z,46.00
2023-04-15T20:30:30.460Z,17.27
2023-04-15T20:33:33.175Z,17.08
2023-04-15T20:36:35.728Z,15.52
2023-04-15T20:39:39.849Z,13.90
2023-04-15T20:42:43.767Z,15.53
2023-04-15T20:45:47.386Z,15.85
2023-04-15T20:48:50.476Z,13.15
2023-04-15T20:51:53.111Z,16.48
2023-04-15T20:54:55.895Z,15.50
2023-04-15T20:57:59.141Z,14.93
2023-04-15T21:01:02.191Z,16.15
2023-04-15T21:04:05.023Z,15.05
2023-04-15T21:07:07.811Z,15.68
2023-04-15T21:10:10.715Z,15.53
2023-04-15T21:13:17.688Z,15.37
2023-04-15T21:16:22.317Z,15.77
2023-04-15T21:19:24.994Z,15.05
2023-04-15T21:22:27.822Z,15.57
2023-04-15T21:25:30.348Z,17.40
2023-04-15T21:28:33.303Z,15.30
2023-04-15T21:31:36.895Z,15.13
2023-04-15T21:34:39.495Z,15.00
2023-04-15T21:37:42.161Z,16.17
2023-04-15T21:40:44.721Z,15.13
2023-04-15T21:43:47.801Z,15.23
2023-04-15T21:46:51.188Z,15.60
2023-04-15T21:49:54.914Z,14.55
2023-04-15T21:52:57.624Z,13.85
2023-04-15T21:56:00.357Z,14.43
2023-04-15T21:59:03.981Z,15.87
2023-04-15T22:02:07.478Z,16.45
2023-04-15T22:05:10.096Z,17.50
2023-04-15T22:08:12.723Z,14.57
2023-04-15T22:11:23.062Z,15.73
2023-04-15T22:14:26.911Z,16.70
2023-04-15T22:17:29.675Z,15.60
2023-04-15T22:20:32.313Z,16.88
2023-04-15T22:23:35.439Z,16.15
2023-04-15T22:26:39.089Z,18.50
2023-04-15T22:29:41.751Z,17.37
2023-04-15T22:32:44.303Z,17.88
2023-04-15T22:35:47.436Z,17.30
2023-04-15T22:38:50.306Z,17.92
2023-04-15T22:41:53.218Z,18.30
2023-04-15T22:44:56.462Z,19.60
2023-04-15T22:47:59.132Z,23.00
2023-04-15T22:51:05.661Z,21.58
2023-04-15T22:54:09.496Z,22.67
2023-04-15T22:57:12.997Z,21.80
2023-04-15T23:00:15.630Z,23.43
2023-04-15T23:03:19.085Z,25.20
2023-04-15T23:06:22.041Z,23.30
2023-04-15T23:09:24.765Z,23.23
2023-04-15T23:12:28.079Z,24.37
2023-04-15T23:15:30.924Z,24.07
2023-04-15T23:18:34.275Z,24.98
2023-04-15T23:21:36.891Z,24.63
2023-04-15T23:24:39.679Z,24.95
2023-04-15T23:27:42.968Z,24.30
2023-04-15T23:30:45.570Z,23.23
2023-04-15T23:33:48.550Z,20.50
2023-04-15T23:36:51.991Z,22.75
2023-04-15T23:39:55.910Z,22.08
2023-04-15T23:42:58.493Z,21.73
2023-04-15T23:46:02.109Z,20.60
2023-04-15T23:49:04.908Z,21.25
2023-04-15T23:52:08.062Z,20.42
2023-04-15T23:55:10.628Z,23.92
2023-04-15T23:58:14.026Z,20.60
